Time;durP1;ratioP1;P1;durP2;ratioP2;P2;SDS_P1;SDS_P2;PMS_P1;PMS_P2;Temp;Humidity;BMP_temperature;BMP_pressure;BME280_temperature;BME280_humidity;BME280_pressure;Samples;Min_cycle;Max_cycle;Signal;HPM_P1;HPM_P2
2022/04/28 00:02:17;;;;;;;;;;;8.20;99.90;;;;;;5069425;28;19969;-55
2022/04/28 00:04:42;;;;;;;;;;;8.20;99.90;;;;;;5071610;28;19913;-55
2022/04/28 00:07:08;;;;;;;;;;;8.10;99.90;;;;;;5070390;28;19912;-53
2022/04/28 00:09:33;;;;;;;;;;;8.00;99.90;;;;;;5072818;28;19909;-55
2022/04/28 00:11:59;;;;;;;;;;;8.00;99.90;;;;;;5070110;28;19939;-52
2022/04/28 00:14:24;;;;;;;;;;;8.00;99.90;;;;;;5103880;28;19955;-53
2022/04/28 00:16:50;;;;;;;;;;;8.10;99.90;;;;;;5068828;28;19908;-56
2022/04/28 00:19:15;;;;;;;;;;;8.10;99.90;;;;;;5068796;28;20548;-53
2022/04/28 00:21:41;;;;;;;;;;;8.10;99.90;;;;;;5080359;22;19971;-52
2022/04/28 00:24:06;;;;;;;;;;;8.10;99.90;;;;;;5041233;28;19917;-55
2022/04/28 00:26:32;;;;;;;;;;;8.00;99.90;;;;;;5040477;28;19920;-51
2022/04/28 00:28:57;;;;;;;;;;;8.10;99.90;;;;;;5044292;28;20379;-54
2022/04/28 00:31:23;;;;;;;;;;;8.10;99.90;;;;;;5040995;28;20012;-54
2022/04/28 00:33:48;;;;;;;;;;;8.00;99.90;;;;;;5024360;28;21889;-56
2022/04/28 00:36:14;;;;;;;;;;;8.00;99.90;;;;;;5027981;28;19917;-52
2022/04/28 00:38:39;;;;;;;;;;;8.00;99.90;;;;;;5028961;28;19905;-57
2022/04/28 00:41:05;;;;;;;;;;;8.00;99.90;;;;;;5027252;28;19909;-55
2022/04/28 00:43:31;;;;;;;;;;;7.90;99.90;;;;;;5027900;28;19909;-54
2022/04/28 00:45:57;;;;;;;;;;;7.90;99.90;;;;;;5026141;28;19925;-53
2022/04/28 00:51:07;;;;;;;;;;;7.90;99.90;;;;;;5032074;28;20326;-50
2022/04/28 00:53:34;;;;;;;;;;;7.90;99.90;;;;;;5029087;28;19909;-53
2022/04/28 00:56:00;;;;;;;;;;;7.90;99.90;;;;;;5032299;28;19920;-52
2022/04/28 00:58:26;;;;;;;;;;;7.90;99.90;;;;;;5031939;28;19913;-53
2022/04/28 01:00:54;;;;;;;;;;;7.90;99.90;;;;;;5031170;28;20003;-55
2022/04/28 01:03:20;;;;;;;;;;;7.90;99.90;;;;;;5033429;28;19936;-53
2022/04/28 01:05:46;;;;;;;;;;;7.80;99.90;;;;;;5032808;28;19909;-54
2022/04/28 01:08:12;;;;;;;;;;;7.70;99.90;;;;;;5031805;28;19917;-57
2022/04/28 01:10:37;;;;;;;;;;;7.70;99.90;;;;;;5033008;28;20519;-56
2022/04/28 01:13:03;;;;;;;;;;;7.60;99.90;;;;;;5035455;28;19913;-55
2022/04/28 01:15:29;;;;;;;;;;;7.50;99.90;;;;;;5035629;28;19956;-55
2022/04/28 01:17:54;;;;;;;;;;;7.60;99.90;;;;;;5034501;28;19917;-55
2022/04/28 01:20:20;;;;;;;;;;;7.50;99.90;;;;;;5030687;28;19909;-55
2022/04/28 01:22:45;;;;;;;;;;;7.50;99.90;;;;;;5033148;28;19913;-53
2022/04/28 01:25:11;;;;;;;;;;;7.40;99.90;;;;;;5029480;28;19909;-54
2022/04/28 01:27:37;;;;;;;;;;;7.40;99.90;;;;;;5032306;28;19923;-52
2022/04/28 01:30:03;;;;;;;;;;;7.40;99.90;;;;;;5031409;28;19909;-53
2022/04/28 01:32:29;;;;;;;;;;;7.30;99.90;;;;;;5032614;28;19932;-50
2022/04/28 01:34:54;;;;;;;;;;;7.20;99.90;;;;;;5030525;28;20383;-52
2022/04/28 01:37:20;;;;;;;;;;;7.30;99.90;;;;;;5034184;28;19970;-53
2022/04/28 01:39:45;;;;;;;;;;;7.20;99.90;;;;;;5032995;28;19924;-53
2022/04/28 01:42:11;;;;;;;;;;;7.10;99.90;;;;;;5033999;28;19909;-51
2022/04/28 01:44:36;;;;;;;;;;;7.10;99.90;;;;;;5035686;28;19913;-55
2022/04/28 01:47:02;;;;;;;;;;;7.10;99.90;;;;;;5031004;28;19913;-54
2022/04/28 01:49:27;;;;;;;;;;;7.10;99.90;;;;;;5034592;28;19916;-57
2022/04/28 01:57:21;;;;;;;;;;;7.00;99.90;;;;;;5034598;28;20302;-55
2022/04/28 01:59:47;;;;;;;;;;;7.00;99.90;;;;;;5032604;28;19912;-57
2022/04/28 02:02:12;;;;;;;;;;;7.00;99.90;;;;;;5029917;28;20314;-51
2022/04/28 02:04:38;;;;;;;;;;;7.00;99.90;;;;;;5027091;28;19909;-51
2022/04/28 02:07:04;;;;;;;;;;;6.90;99.90;;;;;;5031973;28;19921;-57
2022/04/28 02:09:29;;;;;;;;;;;6.90;99.90;;;;;;5025899;28;19909;-56
2022/04/28 02:11:55;;;;;;;;;;;6.90;99.90;;;;;;5030445;28;20039;-55
2022/04/28 02:14:20;;;;;;;;;;;6.90;99.90;;;;;;5031294;28;19910;-55
2022/04/28 02:16:46;;;;;;;;;;;6.90;99.90;;;;;;5030981;28;19954;-55
2022/04/28 02:19:11;;;;;;;;;;;6.90;99.90;;;;;;5030134;28;19917;-51
2022/04/28 02:21:37;;;;;;;;;;;6.80;99.90;;;;;;5030374;28;20366;-55
2022/04/28 02:24:02;;;;;;;;;;;6.80;99.90;;;;;;5030970;28;20536;-51
2022/04/28 02:26:28;;;;;;;;;;;6.70;99.90;;;;;;5031422;28;19944;-55
2022/04/28 02:28:53;;;;;;;;;;;6.70;99.90;;;;;;5027090;28;19913;-57
2022/04/28 02:31:19;;;;;;;;;;;6.60;99.90;;;;;;5027619;28;19963;-55
2022/04/28 02:33:44;;;;;;;;;;;6.60;99.90;;;;;;5029226;28;19913;-57
2022/04/28 02:36:09;;;;;;;;;;;6.60;99.90;;;;;;5030007;28;19916;-56
2022/04/28 02:38:35;;;;;;;;;;;6.60;99.90;;;;;;5032548;28;19916;-54
2022/04/28 02:41:01;;;;;;;;;;;6.60;99.90;;;;;;5026976;28;19909;-55
2022/04/28 02:43:26;;;;;;;;;;;6.50;99.90;;;;;;5029840;28;19916;-53
2022/04/28 02:45:52;;;;;;;;;;;6.50;99.90;;;;;;5029499;28;19955;-55
2022/04/28 02:48:17;;;;;;;;;;;6.60;99.90;;;;;;5028486;28;20325;-55
2022/04/28 02:50:43;;;;;;;;;;;6.60;99.90;;;;;;5029069;28;19971;-56
2022/04/28 02:53:08;;;;;;;;;;;6.60;99.90;;;;;;5030850;28;20016;-52
2022/04/28 02:55:33;;;;;;;;;;;6.50;99.90;;;;;;5028885;28;19913;-54
2022/04/28 02:57:59;;;;;;;;;;;6.50;99.90;;;;;;5027659;28;20363;-54
2022/04/28 03:00:24;;;;;;;;;;;6.40;99.90;;;;;;5026161;28;20516;-57
2022/04/28 03:02:50;;;;;;;;;;;6.40;99.90;;;;;;5029107;28;19909;-54
2022/04/28 03:05:15;;;;;;;;;;;6.40;99.90;;;;;;5030112;28;19916;-55
2022/04/28 03:10:51;;;;;;;;;;;6.40;99.90;;;;;;5028133;28;20414;-53
2022/04/28 03:13:17;;;;;;;;;;;6.30;99.90;;;;;;5029583;28;19913;-52
2022/04/28 03:15:45;;;;;;;;;;;6.30;99.90;;;;;;5027796;28;19909;-52
2022/04/28 03:18:11;;;;;;;;;;;6.30;99.90;;;;;;5029240;28;19949;-55
2022/04/28 03:20:37;;;;;;;;;;;6.20;99.90;;;;;;5031439;28;19924;-56
2022/04/28 03:23:02;;;;;;;;;;;6.20;99.90;;;;;;5031831;28;19912;-54
2022/04/28 03:25:28;;;;;;;;;;;6.10;99.90;;;;;;5030789;28;19909;-57
2022/04/28 03:27:56;;;;;;;;;;;6.10;99.90;;;;;;5031547;28;19999;-57
2022/04/28 03:30:22;;;;;;;;;;;6.10;99.90;;;;;;5029807;28;19934;-55
2022/04/28 03:32:47;;;;;;;;;;;6.10;99.90;;;;;;5025388;28;19917;-56
2022/04/28 03:35:14;;;;;;;;;;;6.10;99.90;;;;;;5030812;28;20055;-52
2022/04/28 03:37:39;;;;;;;;;;;6.00;99.90;;;;;;5031105;28;19916;-55
2022/04/28 03:40:05;;;;;;;;;;;6.00;99.90;;;;;;5027608;28;19911;-53
2022/04/28 03:42:31;;;;;;;;;;;6.00;99.90;;;;;;5031634;28;19912;-53
2022/04/28 03:44:56;;;;;;;;;;;6.00;99.90;;;;;;5031457;28;19915;-55
2022/04/28 03:47:22;;;;;;;;;;;6.00;99.90;;;;;;5031896;28;19920;-53
2022/04/28 03:49:47;;;;;;;;;;;5.90;99.90;;;;;;5031008;28;19927;-55
2022/04/28 03:52:13;;;;;;;;;;;5.90;99.90;;;;;;5023891;28;20442;-57
2022/04/28 03:54:38;;;;;;;;;;;5.90;99.90;;;;;;5031471;28;20333;-54
2022/04/28 03:57:04;;;;;;;;;;;5.80;99.90;;;;;;5031965;28;20367;-57
2022/04/28 03:59:30;;;;;;;;;;;5.80;99.90;;;;;;5031331;28;20000;-52
2022/04/28 04:01:56;;;;;;;;;;;5.80;99.90;;;;;;5030240;28;19909;-53
2022/04/28 04:04:21;;;;;;;;;;;5.80;99.90;;;;;;5026493;28;19913;-54
2022/04/28 04:06:46;;;;;;;;;;;5.80;99.90;;;;;;5028519;28;19917;-52
2022/04/28 04:09:12;;;;;;;;;;;5.80;99.90;;;;;;5028489;28;20004;-56
2022/04/28 04:11:37;;;;;;;;;;;5.80;99.90;;;;;;5029104;28;19913;-54
2022/04/28 04:14:03;;;;;;;;;;;5.80;99.90;;;;;;5028932;28;19909;-51
2022/04/28 04:16:28;;;;;;;;;;;5.80;99.90;;;;;;5025717;28;19913;-55
2022/04/28 04:18:54;;;;;;;;;;;5.80;99.90;;;;;;5030384;28;19975;-54
2022/04/28 04:21:20;;;;;;;;;;;5.80;99.90;;;;;;5027068;28;19908;-53
2022/04/28 04:23:46;;;;;;;;;;;5.80;99.90;;;;;;5027492;28;19999;-55
2022/04/28 04:26:12;;;;;;;;;;;5.90;99.90;;;;;;5028370;28;20004;-55
2022/04/28 04:28:37;;;;;;;;;;;5.90;99.90;;;;;;5026336;28;19912;-55
2022/04/28 04:33:46;;;;;;;;;;;5.90;99.90;;;;;;5028543;28;20283;-54
2022/04/28 04:36:12;;;;;;;;;;;5.90;99.90;;;;;;5028719;28;19917;-53
2022/04/28 04:38:38;;;;;;;;;;;5.90;99.90;;;;;;5028683;28;20034;-57
2022/04/28 04:41:05;;;;;;;;;;;5.80;99.90;;;;;;5024660;28;19910;-52
2022/04/28 04:43:31;;;;;;;;;;;5.90;99.90;;;;;;5024775;28;19917;-54
2022/04/28 04:45:56;;;;;;;;;;;5.90;99.90;;;;;;5028868;28;20012;-55
2022/04/28 04:48:22;;;;;;;;;;;5.90;99.90;;;;;;5031076;28;20485;-53
2022/04/28 04:50:48;;;;;;;;;;;5.90;99.90;;;;;;5030057;28;19944;-54
2022/04/28 04:53:13;;;;;;;;;;;5.90;99.90;;;;;;5023897;28;19975;-57
2022/04/28 04:55:39;;;;;;;;;;;6.00;99.90;;;;;;5029496;28;19916;-55
2022/04/28 04:58:05;;;;;;;;;;;6.00;99.90;;;;;;5025095;28;19913;-57
2022/04/28 05:00:30;;;;;;;;;;;6.00;99.90;;;;;;5027721;28;20390;-54
2022/04/28 05:02:56;;;;;;;;;;;6.10;99.90;;;;;;5027526;28;20283;-54
2022/04/28 05:05:21;;;;;;;;;;;6.10;99.90;;;;;;5027232;28;19909;-56
2022/04/28 05:07:47;;;;;;;;;;;6.20;99.90;;;;;;5019409;28;19917;-52
2022/04/28 05:10:12;;;;;;;;;;;6.20;99.90;;;;;;5025528;28;20690;-52
2022/04/28 05:12:38;;;;;;;;;;;6.30;99.90;;;;;;5024065;28;19914;-52
2022/04/28 05:15:03;;;;;;;;;;;6.40;99.90;;;;;;5028139;28;19952;-54
2022/04/28 05:17:29;;;;;;;;;;;6.50;99.90;;;;;;5025193;28;19909;-57
2022/04/28 05:19:58;;;;;;;;;;;6.60;99.90;;;;;;5022159;28;19913;-57
2022/04/28 05:22:23;;;;;;;;;;;6.70;99.90;;;;;;5018358;28;19921;-54
2022/04/28 05:24:49;;;;;;;;;;;6.80;99.90;;;;;;5023943;28;19910;-57
2022/04/28 05:27:14;;;;;;;;;;;6.80;99.90;;;;;;5022404;28;19918;-52
2022/04/28 05:29:40;;;;;;;;;;;6.80;99.90;;;;;;5020875;28;19909;-55
2022/04/28 05:32:05;;;;;;;;;;;6.80;99.90;;;;;;5020880;28;19909;-56
2022/04/28 05:34:31;;;;;;;;;;;6.90;99.90;;;;;;5024762;28;19909;-55
2022/04/28 05:36:56;;;;;;;;;;;6.90;99.90;;;;;;5019956;28;19913;-55
2022/04/28 05:39:22;;;;;;;;;;;7.00;99.90;;;;;;5032008;28;20380;-56
2022/04/28 05:41:48;;;;;;;;;;;7.10;99.90;;;;;;5029889;28;19913;-50
2022/04/28 05:46:57;;;;;;;;;;;7.30;99.90;;;;;;5028357;28;21853;-56
2022/04/28 05:49:23;;;;;;;;;;;7.40;99.90;;;;;;5027962;28;20363;-52
2022/04/28 05:51:49;;;;;;;;;;;7.40;99.90;;;;;;5026356;28;19917;-50
2022/04/28 05:54:15;;;;;;;;;;;7.50;99.90;;;;;;5030846;28;20546;-55
2022/04/28 05:56:42;;;;;;;;;;;7.60;99.90;;;;;;5031155;28;19917;-50
2022/04/28 05:59:08;;;;;;;;;;;7.70;99.90;;;;;;5029914;28;19944;-55
2022/04/28 06:01:33;;;;;;;;;;;7.70;99.90;;;;;;5028038;28;19917;-53
2022/04/28 06:03:58;;;;;;;;;;;7.80;99.90;;;;;;5032164;28;19976;-54
2022/04/28 06:06:24;;;;;;;;;;;7.90;99.90;;;;;;5028261;28;19939;-52
2022/04/28 06:08:49;;;;;;;;;;;7.90;99.90;;;;;;5025327;28;19913;-54
2022/04/28 06:11:15;;;;;;;;;;;8.00;99.90;;;;;;5030198;28;19970;-55
2022/04/28 06:13:40;;;;;;;;;;;8.00;99.90;;;;;;5032465;28;19959;-58
2022/04/28 06:16:06;;;;;;;;;;;8.10;99.90;;;;;;5030698;28;19909;-52
2022/04/28 06:18:31;;;;;;;;;;;8.20;99.90;;;;;;5031880;28;20004;-55
2022/04/28 06:20:57;;;;;;;;;;;8.30;99.90;;;;;;5030030;28;20375;-53
2022/04/28 06:23:22;;;;;;;;;;;8.40;99.90;;;;;;5032188;28;20382;-55
2022/04/28 06:25:48;;;;;;;;;;;8.40;99.90;;;;;;5031448;28;20414;-52
2022/04/28 06:28:16;;;;;;;;;;;8.50;99.90;;;;;;5032996;28;19920;-55
2022/04/28 06:30:42;;;;;;;;;;;8.50;99.90;;;;;;5032575;28;19932;-56
2022/04/28 06:33:08;;;;;;;;;;;8.60;99.90;;;;;;5032903;28;19913;-53
2022/04/28 06:35:34;;;;;;;;;;;8.60;99.90;;;;;;5032041;28;19970;-55
2022/04/28 06:37:59;;;;;;;;;;;8.70;99.90;;;;;;5031841;28;19909;-49
2022/04/28 06:40:25;;;;;;;;;;;8.80;99.90;;;;;;5029254;28;20248;-51
2022/04/28 06:42:52;;;;;;;;;;;8.90;99.90;;;;;;5032529;28;19916;-57
2022/04/28 06:45:17;;;;;;;;;;;8.90;99.90;;;;;;5033233;28;19912;-56
2022/04/28 06:47:43;;;;;;;;;;;9.00;99.90;;;;;;5022134;28;19924;-57
2022/04/28 06:50:09;;;;;;;;;;;9.10;99.90;;;;;;5024225;28;19958;-54
2022/04/28 06:52:38;;;;;;;;;;;9.10;99.90;;;;;;5031522;28;19912;-53
2022/04/28 06:55:04;;;;;;;;;;;9.20;99.90;;;;;;5033240;28;20014;-54
2022/04/28 06:57:29;;;;;;;;;;;9.30;99.90;;;;;;5027038;28;20382;-52
2022/04/28 06:59:55;;;;;;;;;;;9.40;99.90;;;;;;5033246;28;19915;-55
2022/04/28 07:02:21;;;;;;;;;;;9.50;99.90;;;;;;5030635;28;20012;-52
2022/04/28 07:04:47;;;;;;;;;;;9.50;99.90;;;;;;5032767;28;20286;-54
2022/04/28 07:07:13;;;;;;;;;;;9.60;99.90;;;;;;5032170;28;19917;-54
2022/04/28 07:09:38;;;;;;;;;;;9.60;99.90;;;;;;5030027;28;19909;-55
2022/04/28 07:12:04;;;;;;;;;;;9.70;99.90;;;;;;5032757;28;19940;-56
2022/04/28 07:14:29;;;;;;;;;;;9.70;99.90;;;;;;5032610;28;20298;-54
2022/04/28 07:16:54;;;;;;;;;;;9.80;99.90;;;;;;5032337;28;19909;-56
2022/04/28 07:19:20;;;;;;;;;;;9.90;99.90;;;;;;5029051;28;19971;-53
2022/04/28 07:21:45;;;;;;;;;;;10.10;99.90;;;;;;5030965;28;20451;-51
2022/04/28 07:24:11;;;;;;;;;;;10.20;99.90;;;;;;5032901;28;20390;-55
2022/04/28 07:26:36;;;;;;;;;;;10.20;99.90;;;;;;5032368;28;20323;-56
2022/04/28 07:29:05;;;;;;;;;;;10.30;99.90;;;;;;5031714;28;19920;-57
2022/04/28 07:31:30;;;;;;;;;;;10.40;99.90;;;;;;5030925;28;20402;-55
2022/04/28 07:33:56;;;;;;;;;;;10.40;99.90;;;;;;5032144;28;19955;-53
2022/04/28 07:36:21;;;;;;;;;;;10.50;99.90;;;;;;5031891;28;19955;-56
2022/04/28 07:38:47;;;;;;;;;;;10.60;99.90;;;;;;5030856;28;19909;-56
2022/04/28 07:41:14;;;;;;;;;;;10.70;99.90;;;;;;5031994;28;19909;-56
2022/04/28 07:43:39;;;;;;;;;;;10.80;99.90;;;;;;5032472;28;19909;-51
2022/04/28 07:46:05;;;;;;;;;;;10.90;99.90;;;;;;5032204;28;19927;-54
2022/04/28 07:48:30;;;;;;;;;;;11.00;99.90;;;;;;5028042;28;19913;-54
2022/04/28 07:50:56;;;;;;;;;;;11.10;99.90;;;;;;5031871;28;20394;-53
2022/04/28 07:53:21;;;;;;;;;;;11.10;99.90;;;;;;5031846;28;19905;-56
2022/04/28 07:56:10;;;;;;;;;;;11.30;99.90;;;;;;5032032;28;19920;-57
2022/04/28 07:58:32;;;;;;;;;;;11.30;99.90;;;;;;5030826;28;19916;-54
2022/04/28 08:00:59;;;;;;;;;;;11.40;99.90;;;;;;5030667;28;19905;-54
2022/04/28 08:03:24;;;;;;;;;;;11.50;99.90;;;;;;5030744;28;19944;-53
2022/04/28 08:05:50;;;;;;;;;;;11.60;99.90;;;;;;5027527;28;20006;-56
2022/04/28 08:08:15;;;;;;;;;;;11.70;99.90;;;;;;5029239;28;19917;-54
2022/04/28 08:10:41;;;;;;;;;;;11.80;99.90;;;;;;5031004;28;20003;-52
2022/04/28 08:13:06;;;;;;;;;;;11.80;99.90;;;;;;5031104;28;19905;-56
2022/04/28 08:15:32;;;;;;;;;;;11.90;99.90;;;;;;5028610;28;19905;-55
2022/04/28 08:17:57;;;;;;;;;;;12.00;99.90;;;;;;5029142;28;19909;-56
2022/04/28 08:20:22;;;;;;;;;;;12.10;99.90;;;;;;5028885;28;19905;-55
2022/04/28 08:22:48;;;;;;;;;;;12.20;99.90;;;;;;5030872;28;19914;-55
2022/04/28 08:25:13;;;;;;;;;;;12.40;99.90;;;;;;5031274;28;19913;-57
2022/04/28 08:27:39;;;;;;;;;;;12.50;99.90;;;;;;5030057;28;19987;-53
2022/04/28 08:30:05;;;;;;;;;;;12.60;99.90;;;;;;5031425;28;19905;-54
2022/04/28 08:32:30;;;;;;;;;;;12.80;99.90;;;;;;5031204;28;19909;-51
2022/04/28 08:34:55;;;;;;;;;;;12.90;99.90;;;;;;5031298;28;20008;-55
2022/04/28 08:37:21;;;;;;;;;;;13.00;99.90;;;;;;5029556;28;20291;-52
2022/04/28 08:39:46;;;;;;;;;;;13.10;99.90;;;;;;5030943;28;19915;-54
2022/04/28 08:42:13;;;;;;;;;;;13.10;99.90;;;;;;5031042;28;19909;-56
2022/04/28 08:44:38;;;;;;;;;;;13.20;99.90;;;;;;5030892;28;19970;-54
2022/04/28 08:47:04;;;;;;;;;;;13.30;99.90;;;;;;5030122;28;20000;-53
2022/04/28 08:49:30;;;;;;;;;;;13.40;99.90;;;;;;5031042;28;19992;-56
2022/04/28 08:51:57;;;;;;;;;;;13.50;99.90;;;;;;5026744;28;20286;-56
2022/04/28 08:54:23;;;;;;;;;;;13.70;99.90;;;;;;5029412;28;19908;-58
2022/04/28 08:56:50;;;;;;;;;;;13.80;99.90;;;;;;5027445;28;19999;-55
2022/04/28 08:59:15;;;;;;;;;;;13.90;99.90;;;;;;5028149;28;19968;-54
2022/04/28 09:01:41;;;;;;;;;;;14.00;99.90;;;;;;5028939;28;20408;-54
2022/04/28 09:04:10;;;;;;;;;;;14.10;99.90;;;;;;5031226;28;19912;-57
2022/04/28 09:06:36;;;;;;;;;;;14.10;99.90;;;;;;5030159;28;19920;-56
2022/04/28 09:09:06;;;;;;;;;;;14.10;99.90;;;;;;5029390;28;19909;-54
2022/04/28 09:11:35;;;;;;;;;;;14.20;99.90;;;;;;5031438;28;19913;-55
2022/04/28 09:14:18;;;;;;;;;;;14.30;99.90;;;;;;5035269;28;19915;-56
2022/04/28 09:16:46;;;;;;;;;;;14.40;99.90;;;;;;5035092;28;19905;-56
2022/04/28 09:19:13;;;;;;;;;;;14.60;99.90;;;;;;5033582;28;19916;-58
2022/04/28 09:21:40;;;;;;;;;;;14.90;99.90;;;;;;5026792;28;20407;-58
2022/04/28 09:24:06;;;;;;;;;;;15.10;99.90;;;;;;5034999;28;20305;-57
2022/04/28 09:26:35;;;;;;;;;;;15.20;99.90;;;;;;5034714;28;19909;-57
2022/04/28 09:29:04;;;;;;;;;;;15.40;99.90;;;;;;5033379;28;19905;-55
2022/04/28 09:31:33;;;;;;;;;;;15.40;99.90;;;;;;5033857;28;19996;-58
2022/04/28 09:34:03;;;;;;;;;;;15.40;99.90;;;;;;5031655;28;19992;-54
2022/04/28 09:36:29;;;;;;;;;;;15.50;99.90;;;;;;5034707;28;19952;-56
2022/04/28 09:38:54;;;;;;;;;;;15.60;99.90;;;;;;5033494;28;19963;-55
2022/04/28 09:44:05;;;;;;;;;;;15.70;99.90;;;;;;5034444;28;19927;-52
2022/04/28 09:46:31;;;;;;;;;;;15.90;99.90;;;;;;5033616;28;20634;-55
2022/04/28 09:48:57;;;;;;;;;;;15.70;99.90;;;;;;5033036;28;20394;-56
2022/04/28 09:51:23;;;;;;;;;;;16.00;99.90;;;;;;5033740;28;20375;-55
2022/04/28 09:53:49;;;;;;;;;;;16.20;99.90;;;;;;5034801;28;19904;-54
2022/04/28 09:56:18;;;;;;;;;;;16.50;99.90;;;;;;5034050;28;19912;-57
2022/04/28 09:58:45;;;;;;;;;;;16.50;99.90;;;;;;5032967;28;19912;-58
2022/04/28 10:01:11;;;;;;;;;;;16.40;99.90;;;;;;5033295;28;19913;-57
2022/04/28 10:03:39;;;;;;;;;;;16.60;99.90;;;;;;5033554;28;19916;-57
2022/04/28 10:06:06;;;;;;;;;;;16.60;99.90;;;;;;5033562;28;19913;-57
2022/04/28 10:08:35;;;;;;;;;;;16.70;99.90;;;;;;5032017;28;20443;-53
2022/04/28 10:11:03;;;;;;;;;;;16.70;99.90;;;;;;5032269;28;19909;-55
2022/04/28 10:13:29;;;;;;;;;;;16.70;99.90;;;;;;5031918;28;19909;-57
2022/04/28 10:15:56;;;;;;;;;;;16.70;99.90;;;;;;5034044;28;19909;-57
2022/04/28 10:18:25;;;;;;;;;;;16.80;99.90;;;;;;5029906;28;19909;-54
2022/04/28 10:20:55;;;;;;;;;;;16.90;99.90;;;;;;5028121;28;20560;-54
2022/04/28 10:32:22;;;;;;;;;;;17.10;99.90;;;;;;5032576;28;19944;-51
2022/04/28 10:32:24;;;;;;;;;;;17.90;99.90;;;;;;5033301;28;19963;-53
2022/04/28 10:34:31;;;;;;;;;;;18.10;99.90;;;;;;5024847;28;19915;-52
2022/04/28 10:37:02;;;;;;;;;;;18.00;99.90;;;;;;5031161;28;20020;-53
2022/04/28 10:39:46;;;;;;;;;;;18.10;99.90;;;;;;5032734;28;19913;-55
2022/04/28 10:42:12;;;;;;;;;;;17.80;99.90;;;;;;5033565;28;19905;-58
2022/04/28 10:44:40;;;;;;;;;;;17.80;99.90;;;;;;5027859;28;19920;-56
2022/04/28 10:47:07;;;;;;;;;;;17.80;99.90;;;;;;5030897;28;19978;-57
2022/04/28 10:49:37;;;;;;;;;;;18.10;99.90;;;;;;5032421;28;19905;-54
2022/04/28 10:52:04;;;;;;;;;;;18.40;99.90;;;;;;5022813;28;19909;-55
2022/04/28 10:54:42;;;;;;;;;;;18.70;99.90;;;;;;5031034;28;19955;-57
2022/04/28 10:57:07;;;;;;;;;;;18.80;99.90;;;;;;5025545;28;19909;-55
2022/04/28 10:59:34;;;;;;;;;;;18.90;99.90;;;;;;5030786;28;19932;-56
2022/04/28 11:02:15;;;;;;;;;;;18.90;99.90;;;;;;5030317;28;20382;-55
2022/04/28 11:04:52;;;;;;;;;;;18.80;99.90;;;;;;5032462;28;19912;-58
2022/04/28 11:07:24;;;;;;;;;;;18.30;99.90;;;;;;5029797;28;20362;-53
2022/04/28 11:09:51;;;;;;;;;;;18.40;99.90;;;;;;5031746;28;20003;-54
2022/04/28 11:12:20;;;;;;;;;;;18.80;99.90;;;;;;5029491;28;19909;-54
2022/04/28 11:14:50;;;;;;;;;;;18.90;99.90;;;;;;5032052;28;19920;-54
2022/04/28 11:17:16;;;;;;;;;;;19.20;99.90;;;;;;5030813;28;20268;-56
2022/04/28 11:19:43;;;;;;;;;;;18.90;99.90;;;;;;5031589;28;19910;-52
2022/04/28 11:22:11;;;;;;;;;;;18.70;99.90;;;;;;5030146;28;19917;-53
2022/04/28 11:24:44;;;;;;;;;;;18.50;99.90;;;;;;5033129;28;19992;-59
2022/04/28 11:27:20;;;;;;;;;;;18.70;99.90;;;;;;5028772;28;20016;-54
2022/04/28 11:29:46;;;;;;;;;;;18.70;99.90;;;;;;5019778;28;19917;-55
2022/04/28 11:32:14;;;;;;;;;;;18.70;99.90;;;;;;5026933;28;19917;-56
2022/04/28 11:34:42;;;;;;;;;;;18.70;99.90;;;;;;5022998;28;19913;-55
2022/04/28 11:37:18;;;;;;;;;;;18.80;99.90;;;;;;5024863;28;20607;-56
2022/04/28 11:39:44;;;;;;;;;;;18.80;99.90;;;;;;5031661;28;19905;-56
2022/04/28 11:42:12;;;;;;;;;;;19.10;99.90;;;;;;5030105;28;19909;-57
2022/04/28 11:44:52;;;;;;;;;;;19.10;99.90;;;;;;5030929;28;19959;-56
2022/04/28 11:47:18;;;;;;;;;;;19.00;99.90;;;;;;5024548;28;20481;-57
2022/04/28 11:49:44;;;;;;;;;;;19.20;99.90;;;;;;5028763;28;19909;-55
2022/04/28 11:52:20;;;;;;;;;;;19.30;99.90;;;;;;5026519;28;19916;-51
2022/04/28 11:54:49;;;;;;;;;;;19.40;99.90;;;;;;5026961;28;19979;-57
2022/04/28 11:57:15;;;;;;;;;;;19.50;99.90;;;;;;5028123;28;20035;-51
2022/04/28 11:59:40;;;;;;;;;;;19.70;99.90;;;;;;5023322;28;20040;-52
2022/04/28 12:02:24;;;;;;;;;;;19.90;99.90;;;;;;5026233;28;20398;-48
2022/04/28 12:04:50;;;;;;;;;;;19.90;99.90;;;;;;5024396;28;19909;-57
2022/04/28 12:07:20;;;;;;;;;;;19.90;99.80;;;;;;5027703;28;19919;-54
2022/04/28 12:15:25;;;;;;;;;;;19.70;99.70;;;;;;5023405;28;20378;-53
2022/04/28 12:20:50;;;;;;;;;;;20.10;98.20;;;;;;5022608;28;20414;-55
2022/04/28 12:23:37;;;;;;;;;;;20.10;99.40;;;;;;5025500;28;19917;-53
2022/04/28 12:26:06;;;;;;;;;;;20.50;98.80;;;;;;5029220;28;19909;-56
2022/04/28 12:28:32;;;;;;;;;;;20.60;97.40;;;;;;5028334;28;20425;-55
2022/04/28 12:30:59;;;;;;;;;;;20.20;97.00;;;;;;5024222;28;20532;-53
2022/04/28 12:33:33;;;;;;;;;;;20.30;97.00;;;;;;5027411;28;19917;-53
2022/04/28 12:35:59;;;;;;;;;;;20.30;97.90;;;;;;5049556;22;19936;-53
2022/04/28 12:38:28;;;;;;;;;;;20.40;98.70;;;;;;5037140;28;19909;-60
2022/04/28 12:40:54;;;;;;;;;;;20.80;96.30;;;;;;5036407;28;20047;-56
2022/04/28 12:43:39;;;;;;;;;;;20.90;95.70;;;;;;5041364;28;19999;-55
2022/04/28 12:46:06;;;;;;;;;;;21.00;95.30;;;;;;5037924;28;19909;-54
2022/04/28 12:48:32;;;;;;;;;;;21.10;95.60;;;;;;5027161;28;20018;-55
2022/04/28 12:51:14;;;;;;;;;;;21.40;95.80;;;;;;5021626;28;19967;-54
2022/04/28 12:53:41;;;;;;;;;;;21.60;94.20;;;;;;5032369;28;19971;-53
2022/04/28 12:56:12;;;;;;;;;;;21.40;93.60;;;;;;5028027;28;20000;-52
2022/04/28 12:58:38;;;;;;;;;;;21.20;92.50;;;;;;5027080;28;19905;-55
2022/04/28 13:01:03;;;;;;;;;;;21.10;92.80;;;;;;5017792;28;20263;-55
2022/04/28 13:03:29;;;;;;;;;;;21.00;93.70;;;;;;5022089;28;19920;-59
2022/04/28 13:05:55;;;;;;;;;;;20.70;92.50;;;;;;5024291;28;19905;-55
2022/04/28 13:08:21;;;;;;;;;;;20.70;93.20;;;;;;5036975;28;20369;-54
2022/04/28 13:10:46;;;;;;;;;;;20.80;92.50;;;;;;5027807;28;19905;-53
2022/04/28 13:13:12;;;;;;;;;;;21.10;92.60;;;;;;5042686;28;19913;-55
2022/04/28 13:15:37;;;;;;;;;;;21.10;92.10;;;;;;5025056;28;19917;-55
2022/04/28 13:18:03;;;;;;;;;;;21.10;92.50;;;;;;5029930;28;19908;-53
2022/04/28 13:20:28;;;;;;;;;;;21.50;93.10;;;;;;5027187;28;19916;-55
2022/04/28 13:22:54;;;;;;;;;;;21.40;91.30;;;;;;5024121;28;20290;-55
2022/04/28 13:25:20;;;;;;;;;;;21.60;92.60;;;;;;5027652;28;19976;-55
2022/04/28 13:27:46;;;;;;;;;;;21.70;90.40;;;;;;5024538;28;20020;-54
2022/04/28 13:30:13;;;;;;;;;;;21.20;88.80;;;;;;5027650;28;20004;-55
2022/04/28 13:32:39;;;;;;;;;;;21.20;90.80;;;;;;5020438;28;20425;-53
2022/04/28 13:35:05;;;;;;;;;;;21.10;90.10;;;;;;5034407;28;19917;-52
2022/04/28 13:37:30;;;;;;;;;;;21.10;89.90;;;;;;5032657;28;19909;-55
2022/04/28 13:39:56;;;;;;;;;;;21.20;91.40;;;;;;5019610;28;20393;-60
2022/04/28 13:42:21;;;;;;;;;;;21.30;89.50;;;;;;5022334;28;19912;-53
2022/04/28 13:44:46;;;;;;;;;;;21.00;89.40;;;;;;5016776;28;19913;-58
2022/04/28 13:47:12;;;;;;;;;;;20.70;87.50;;;;;;5028569;28;19917;-57
2022/04/28 13:49:37;;;;;;;;;;;20.60;87.30;;;;;;5027760;28;19905;-54
2022/04/28 13:52:03;;;;;;;;;;;20.70;87.80;;;;;;5024664;28;19916;-57
2022/04/28 13:54:29;;;;;;;;;;;20.60;89.30;;;;;;5030135;28;19947;-55
2022/04/28 13:56:54;;;;;;;;;;;20.70;88.10;;;;;;5023893;28;19956;-52
2022/04/28 13:59:20;;;;;;;;;;;20.70;85.40;;;;;;5025431;28;19920;-56
2022/04/28 14:01:46;;;;;;;;;;;20.60;87.00;;;;;;5026969;28;19909;-57
2022/04/28 14:04:14;;;;;;;;;;;20.80;88.10;;;;;;5027859;28;19916;-53
2022/04/28 14:06:39;;;;;;;;;;;20.60;86.80;;;;;;5032035;28;20487;-53
2022/04/28 14:09:05;;;;;;;;;;;20.80;88.10;;;;;;5024627;28;19916;-55
2022/04/28 14:11:32;;;;;;;;;;;21.00;87.30;;;;;;5033937;28;20308;-55
2022/04/28 14:13:58;;;;;;;;;;;21.20;88.20;;;;;;5029788;28;20479;-57
2022/04/28 14:16:23;;;;;;;;;;;21.30;87.20;;;;;;5024843;28;20079;-57
2022/04/28 14:18:49;;;;;;;;;;;21.50;87.00;;;;;;5028361;28;20348;-55
2022/04/28 14:21:14;;;;;;;;;;;21.30;84.40;;;;;;5033187;28;20371;-55
2022/04/28 14:23:40;;;;;;;;;;;21.30;83.70;;;;;;5028042;28;19920;-55
2022/04/28 14:26:06;;;;;;;;;;;21.30;81.90;;;;;;5028097;28;20379;-53
2022/04/28 14:28:32;;;;;;;;;;;21.10;81.30;;;;;;5034277;28;19917;-58
2022/04/28 14:30:58;;;;;;;;;;;21.10;80.90;;;;;;5026969;28;20640;-53
2022/04/28 14:33:23;;;;;;;;;;;20.80;78.80;;;;;;5029998;28;19964;-56
2022/04/28 14:35:49;;;;;;;;;;;20.70;82.00;;;;;;5028504;28;19914;-56
2022/04/28 14:38:18;;;;;;;;;;;20.70;80.80;;;;;;5031136;28;19913;-55
2022/04/28 14:40:44;;;;;;;;;;;20.70;81.00;;;;;;5028851;28;19978;-56
2022/04/28 14:43:09;;;;;;;;;;;20.60;81.10;;;;;;5032919;28;19913;-53
2022/04/28 14:45:35;;;;;;;;;;;20.60;81.20;;;;;;5033309;28;19921;-55
2022/04/28 14:48:01;;;;;;;;;;;20.70;80.20;;;;;;5030853;28;19913;-56
2022/04/28 14:53:12;;;;;;;;;;;20.90;81.90;;;;;;5029852;28;19920;-52
2022/04/28 14:55:37;;;;;;;;;;;21.10;76.60;;;;;;5026254;28;19952;-54
2022/04/28 14:58:06;;;;;;;;;;;20.90;71.80;;;;;;5029790;28;19953;-57